ASA904 PAFA-PANC
Flight info
| Callsign | ASA904 |
|---|---|
| Flight time | 0h 46m |
| Altitude | 39000 |
| Route | PUYVO5 PUYVO KROTO5 |
| Aircraft | B738/M-SDE2E3FGHIRWXY/LB1 |
Departure
| Time | 2026-04-25 23:53 |
|---|---|
| Airport | Fairbanks International Airport (PAFA) |
Arrival
| Time | 2026-04-26 00:39 |
|---|---|
| Airport | Ted Stevens Anchorage International Airport (PANC) |
| Time | Latitude | Longitude | Altitude | Speed | Heading |
|---|---|---|---|---|---|
| 2026-04-25 23:26 | 64.81733 | -147.86608 | 442 ft | 0 kts | 318° |
| 2026-04-25 23:44 | 64.81728 | -147.86597 | 442 ft | 2 kts | 318° |
| 2026-04-25 23:44 | 64.81716 | -147.86572 | 437 ft | 2 kts | 318° |
| 2026-04-25 23:44 | 64.81704 | -147.86546 | 437 ft | 2 kts | 318° |
| 2026-04-25 23:44 | 64.81695 | -147.86526 | 435 ft | 0 kts | 318° |
| 2026-04-25 23:47 | 64.81711 | -147.86542 | 438 ft | 5 kts | 351° |
| 2026-04-25 23:48 | 64.81736 | -147.86476 | 439 ft | 6 kts | 83° |
| 2026-04-25 23:48 | 64.81740 | -147.86400 | 435 ft | 3 kts | 73° |
| 2026-04-25 23:48 | 64.81751 | -147.86355 | 442 ft | 4 kts | 58° |
| 2026-04-25 23:48 | 64.81762 | -147.86274 | 442 ft | 7 kts | 84° |
| 2026-04-25 23:49 | 64.81777 | -147.86143 | 442 ft | 9 kts | 51° |
| 2026-04-25 23:49 | 64.81832 | -147.86042 | 438 ft | 11 kts | 38° |
| 2026-04-25 23:49 | 64.81902 | -147.85911 | 437 ft | 15 kts | 38° |
| 2026-04-25 23:49 | 64.81991 | -147.85748 | 437 ft | 18 kts | 38° |
| 2026-04-25 23:50 | 64.82092 | -147.85562 | 442 ft | 19 kts | 38° |
| 2026-04-25 23:50 | 64.82197 | -147.85370 | 437 ft | 19 kts | 38° |
| 2026-04-25 23:50 | 64.82299 | -147.85181 | 442 ft | 18 kts | 38° |
| 2026-04-25 23:50 | 64.82398 | -147.85000 | 442 ft | 18 kts | 38° |
| 2026-04-25 23:51 | 64.82494 | -147.84826 | 434 ft | 17 kts | 38° |
| 2026-04-25 23:51 | 64.82585 | -147.84654 | 442 ft | 17 kts | 39° |
| 2026-04-25 23:51 | 64.82675 | -147.84490 | 430 ft | 16 kts | 38° |
| 2026-04-25 23:51 | 64.82761 | -147.84332 | 429 ft | 15 kts | 38° |
| 2026-04-25 23:52 | 64.82838 | -147.84185 | 439 ft | 12 kts | 52° |
| 2026-04-25 23:52 | 64.82816 | -147.83999 | 435 ft | 14 kts | 136° |
| 2026-04-25 23:52 | 64.82757 | -147.84009 | 430 ft | 10 kts | 216° |
| 2026-04-25 23:52 | 64.82650 | -147.84208 | 439 ft | 48 kts | 218° |
| 2026-04-25 23:53 | 64.82156 | -147.85116 | 435 ft | 129 kts | 218° |
| 2026-04-25 23:53 | 64.81327 | -147.86654 | 833 ft | 158 kts | 219° |
| 2026-04-25 23:53 | 64.80401 | -147.88434 | 1526 ft | 176 kts | 220° |
| 2026-04-25 23:53 | 64.79548 | -147.90278 | 2694 ft | 170 kts | 236° |
| 2026-04-25 23:54 | 64.79015 | -147.92910 | 3347 ft | 189 kts | 246° |
| 2026-04-25 23:54 | 64.78465 | -147.95769 | 4234 ft | 197 kts | 245° |
| 2026-04-25 23:54 | 64.77849 | -147.98884 | 4893 ft | 228 kts | 244° |
| 2026-04-25 23:54 | 64.77112 | -148.02526 | 5499 ft | 259 kts | 243° |
| 2026-04-25 23:55 | 64.76326 | -148.06370 | 6721 ft | 263 kts | 243° |
| 2026-04-25 23:55 | 64.75527 | -148.10244 | 7963 ft | 265 kts | 243° |
| 2026-04-25 23:55 | 64.74710 | -148.14173 | 9137 ft | 270 kts | 243° |
| 2026-04-25 23:55 | 64.73875 | -148.18162 | 10266 ft | 275 kts | 242° |
| 2026-04-25 23:56 | 64.72994 | -148.22343 | 10836 ft | 301 kts | 242° |
| 2026-04-25 23:56 | 64.72015 | -148.26958 | 11177 ft | 329 kts | 242° |
| 2026-04-25 23:56 | 64.70972 | -148.31819 | 12030 ft | 338 kts | 239° |
| 2026-04-25 23:56 | 64.69499 | -148.36054 | 13084 ft | 338 kts | 219° |
| 2026-04-25 23:57 | 64.67577 | -148.39255 | 14183 ft | 340 kts | 213° |
| 2026-04-25 23:57 | 64.65584 | -148.42297 | 15157 ft | 344 kts | 212° |
| 2026-04-25 23:57 | 64.63565 | -148.45332 | 16139 ft | 347 kts | 212° |
| 2026-04-25 23:57 | 64.61531 | -148.48393 | 17145 ft | 350 kts | 213° |
| 2026-04-25 23:58 | 64.59481 | -148.51495 | 18122 ft | 353 kts | 213° |
| 2026-04-25 23:58 | 64.57413 | -148.54637 | 18979 ft | 357 kts | 213° |
| 2026-04-25 23:58 | 64.55332 | -148.57808 | 19798 ft | 360 kts | 213° |
| 2026-04-25 23:58 | 64.53230 | -148.61012 | 20630 ft | 363 kts | 213° |
| 2026-04-25 23:59 | 64.51110 | -148.64244 | 21432 ft | 366 kts | 212° |
| 2026-04-25 23:59 | 64.48969 | -148.67502 | 22210 ft | 370 kts | 212° |
| 2026-04-25 23:59 | 64.46807 | -148.70788 | 22967 ft | 373 kts | 212° |
| 2026-04-25 23:59 | 64.44622 | -148.74102 | 23697 ft | 377 kts | 212° |
| 2026-04-26 00:00 | 64.43161 | -148.76314 | 24101 ft | 380 kts | 212° |
| 2026-04-26 00:00 | 64.40188 | -148.80808 | 24901 ft | 384 kts | 212° |
| 2026-04-26 00:00 | 64.37943 | -148.84195 | 25494 ft | 387 kts | 212° |
| 2026-04-26 00:00 | 64.35680 | -148.87604 | 26069 ft | 390 kts | 212° |
| 2026-04-26 00:01 | 64.33397 | -148.91033 | 26633 ft | 393 kts | 212° |
| 2026-04-26 00:01 | 64.31092 | -148.94487 | 27150 ft | 397 kts | 212° |
| 2026-04-26 00:01 | 64.28774 | -148.97986 | 27674 ft | 400 kts | 212° |
| 2026-04-26 00:01 | 64.26472 | -149.01475 | 28187 ft | 403 kts | 212° |
| 2026-04-26 00:02 | 64.24123 | -149.05037 | 28682 ft | 406 kts | 212° |
| 2026-04-26 00:02 | 64.21760 | -149.08613 | 29180 ft | 409 kts | 212° |
| 2026-04-26 00:02 | 64.19388 | -149.12193 | 29863 ft | 407 kts | 212° |
| 2026-04-26 00:02 | 64.17035 | -149.15737 | 30538 ft | 403 kts | 212° |
| 2026-04-26 00:03 | 64.14684 | -149.19268 | 31016 ft | 404 kts | 212° |
| 2026-04-26 00:03 | 64.12319 | -149.22812 | 31128 ft | 406 kts | 212° |
| 2026-04-26 00:03 | 64.09960 | -149.26342 | 31143 ft | 405 kts | 212° |
| 2026-04-26 00:04 | 64.05124 | -149.32985 | 31137 ft | 407 kts | 200° |
| 2026-04-26 00:04 | 63.99618 | -149.35955 | 31146 ft | 408 kts | 191° |
| 2026-04-26 00:05 | 63.94035 | -149.38396 | 31154 ft | 409 kts | 191° |
| 2026-04-26 00:05 | 63.88448 | -149.40912 | 31145 ft | 409 kts | 192° |
| 2026-04-26 00:06 | 63.82862 | -149.43487 | 31143 ft | 409 kts | 192° |
| 2026-04-26 00:06 | 63.77296 | -149.46059 | 31149 ft | 408 kts | 192° |
| 2026-04-26 00:07 | 63.71746 | -149.48614 | 31159 ft | 407 kts | 192° |
| 2026-04-26 00:07 | 63.66197 | -149.51157 | 31148 ft | 406 kts | 191° |
| 2026-04-26 00:08 | 63.60662 | -149.53683 | 31169 ft | 405 kts | 191° |
| 2026-04-26 00:08 | 63.55134 | -149.56191 | 31179 ft | 405 kts | 191° |
| 2026-04-26 00:09 | 63.49643 | -149.58671 | 31179 ft | 405 kts | 191° |
| 2026-04-26 00:09 | 63.44115 | -149.61159 | 31189 ft | 406 kts | 191° |
| 2026-04-26 00:10 | 63.38581 | -149.63641 | 31191 ft | 406 kts | 191° |
| 2026-04-26 00:10 | 63.33034 | -149.66120 | 31201 ft | 407 kts | 191° |
| 2026-04-26 00:11 | 63.27485 | -149.68589 | 31199 ft | 407 kts | 191° |
| 2026-04-26 00:11 | 63.21926 | -149.71054 | 31202 ft | 408 kts | 191° |
| 2026-04-26 00:12 | 63.16358 | -149.73512 | 31215 ft | 408 kts | 191° |
| 2026-04-26 00:12 | 63.10794 | -149.75960 | 31213 ft | 408 kts | 191° |
| 2026-04-26 00:13 | 63.05222 | -149.78401 | 31207 ft | 408 kts | 191° |
| 2026-04-26 00:13 | 62.99656 | -149.80830 | 31210 ft | 407 kts | 191° |
| 2026-04-26 00:14 | 62.94102 | -149.83245 | 31212 ft | 406 kts | 191° |
| 2026-04-26 00:14 | 62.88558 | -149.85647 | 31212 ft | 405 kts | 191° |
| 2026-04-26 00:15 | 62.83028 | -149.88032 | 31207 ft | 404 kts | 191° |
| 2026-04-26 00:15 | 62.77514 | -149.90402 | 31204 ft | 403 kts | 191° |
| 2026-04-26 00:16 | 62.72047 | -149.92743 | 31202 ft | 403 kts | 190° |
| 2026-04-26 00:16 | 62.66506 | -149.95106 | 31198 ft | 403 kts | 190° |
| 2026-04-26 00:17 | 62.61028 | -149.97433 | 31188 ft | 404 kts | 190° |
| 2026-04-26 00:17 | 62.55516 | -149.99767 | 31183 ft | 404 kts | 190° |
| 2026-04-26 00:18 | 62.49997 | -150.02095 | 31181 ft | 404 kts | 190° |
| 2026-04-26 00:18 | 62.47232 | -150.03258 | 31072 ft | 406 kts | 190° |
| 2026-04-26 00:18 | 62.44458 | -150.04422 | 30462 ft | 404 kts | 190° |
| 2026-04-26 00:18 | 62.41709 | -150.05574 | 29587 ft | 401 kts | 190° |
| 2026-04-26 00:19 | 62.38983 | -150.06715 | 28774 ft | 396 kts | 190° |
| 2026-04-26 00:19 | 62.36301 | -150.07835 | 28074 ft | 390 kts | 190° |
| 2026-04-26 00:19 | 62.33661 | -150.08936 | 27397 ft | 383 kts | 190° |
| 2026-04-26 00:19 | 62.31060 | -150.10017 | 26715 ft | 378 kts | 189° |
| 2026-04-26 00:20 | 62.28489 | -150.11050 | 26082 ft | 373 kts | 188° |
| 2026-04-26 00:20 | 62.25947 | -150.11928 | 25439 ft | 368 kts | 187° |
| 2026-04-26 00:20 | 62.23433 | -150.12731 | 24805 ft | 364 kts | 187° |
| 2026-04-26 00:20 | 62.20937 | -150.13515 | 24175 ft | 361 kts | 187° |
| 2026-04-26 00:21 | 62.18462 | -150.14296 | 23493 ft | 358 kts | 187° |
| 2026-04-26 00:21 | 62.16008 | -150.15078 | 22768 ft | 355 kts | 187° |
| 2026-04-26 00:21 | 62.13583 | -150.15857 | 22115 ft | 350 kts | 187° |
| 2026-04-26 00:21 | 62.11190 | -150.16630 | 21501 ft | 346 kts | 187° |
| 2026-04-26 00:22 | 62.08827 | -150.17395 | 20875 ft | 342 kts | 187° |
| 2026-04-26 00:22 | 62.06487 | -150.18153 | 20245 ft | 339 kts | 187° |
| 2026-04-26 00:22 | 62.04168 | -150.18904 | 19641 ft | 336 kts | 187° |
| 2026-04-26 00:22 | 62.01868 | -150.19647 | 19041 ft | 333 kts | 187° |
| 2026-04-26 00:23 | 61.99585 | -150.20384 | 18446 ft | 331 kts | 187° |
| 2026-04-26 00:23 | 61.97317 | -150.21116 | 17781 ft | 328 kts | 187° |
| 2026-04-26 00:23 | 61.95064 | -150.21841 | 17072 ft | 328 kts | 187° |
| 2026-04-26 00:23 | 61.92815 | -150.22565 | 16427 ft | 326 kts | 187° |
| 2026-04-26 00:24 | 61.90583 | -150.23281 | 15815 ft | 323 kts | 187° |
| 2026-04-26 00:24 | 61.88369 | -150.23991 | 15229 ft | 320 kts | 187° |
| 2026-04-26 00:24 | 61.86173 | -150.24694 | 14659 ft | 318 kts | 187° |
| 2026-04-26 00:24 | 61.83986 | -150.25394 | 14089 ft | 316 kts | 187° |
| 2026-04-26 00:25 | 61.81843 | -150.26078 | 13469 ft | 315 kts | 187° |
| 2026-04-26 00:25 | 61.79684 | -150.26766 | 12853 ft | 313 kts | 187° |
| 2026-04-26 00:25 | 61.77558 | -150.27444 | 12619 ft | 301 kts | 187° |
| 2026-04-26 00:25 | 61.75518 | -150.28094 | 12452 ft | 290 kts | 187° |
| 2026-04-26 00:26 | 61.73562 | -150.28716 | 12315 ft | 278 kts | 187° |
| 2026-04-26 00:26 | 61.71686 | -150.29312 | 12192 ft | 267 kts | 186° |
| 2026-04-26 00:26 | 61.69868 | -150.29868 | 12044 ft | 263 kts | 184° |
| 2026-04-26 00:26 | 61.68029 | -150.29946 | 11656 ft | 265 kts | 176° |
| 2026-04-26 00:27 | 61.66191 | -150.29718 | 11295 ft | 264 kts | 175° |
| 2026-04-26 00:27 | 61.64368 | -150.29443 | 10942 ft | 262 kts | 175° |
| 2026-04-26 00:27 | 61.62552 | -150.29173 | 10588 ft | 261 kts | 175° |
| 2026-04-26 00:27 | 61.60739 | -150.28920 | 10237 ft | 261 kts | 175° |
| 2026-04-26 00:28 | 61.58950 | -150.28684 | 10107 ft | 253 kts | 175° |
| 2026-04-26 00:28 | 61.57205 | -150.28462 | 9854 ft | 250 kts | 175° |
| 2026-04-26 00:28 | 61.55471 | -150.28248 | 9544 ft | 249 kts | 175° |
| 2026-04-26 00:28 | 61.53734 | -150.28038 | 9214 ft | 249 kts | 175° |
| 2026-04-26 00:29 | 61.52005 | -150.27831 | 8895 ft | 249 kts | 175° |
| 2026-04-26 00:29 | 61.50274 | -150.27627 | 8580 ft | 249 kts | 175° |
| 2026-04-26 00:29 | 61.49126 | -150.27493 | 8380 ft | 249 kts | 175° |
| 2026-04-26 00:29 | 61.47389 | -150.27290 | 8051 ft | 250 kts | 175° |
| 2026-04-26 00:30 | 61.45651 | -150.27130 | 7730 ft | 250 kts | 181° |
| 2026-04-26 00:30 | 61.43990 | -150.28188 | 7442 ft | 254 kts | 210° |
| 2026-04-26 00:30 | 61.42673 | -150.30644 | 7237 ft | 254 kts | 223° |
| 2026-04-26 00:30 | 61.41470 | -150.33346 | 6922 ft | 254 kts | 224° |
| 2026-04-26 00:31 | 61.40290 | -150.36048 | 6729 ft | 249 kts | 224° |
| 2026-04-26 00:31 | 61.39120 | -150.38741 | 6371 ft | 251 kts | 223° |
| 2026-04-26 00:31 | 61.37725 | -150.40827 | 6012 ft | 246 kts | 199° |
| 2026-04-26 00:31 | 61.36117 | -150.41981 | 5749 ft | 243 kts | 195° |
| 2026-04-26 00:32 | 61.34488 | -150.42922 | 5443 ft | 242 kts | 187° |
| 2026-04-26 00:32 | 61.32822 | -150.43341 | 5160 ft | 241 kts | 184° |
| 2026-04-26 00:32 | 61.29501 | -150.44104 | 4567 ft | 240 kts | 184° |
| 2026-04-26 00:33 | 61.27848 | -150.44477 | 4382 ft | 235 kts | 184° |
| 2026-04-26 00:33 | 61.26246 | -150.44839 | 4238 ft | 229 kts | 184° |
| 2026-04-26 00:33 | 61.24665 | -150.45198 | 3974 ft | 228 kts | 184° |
| 2026-04-26 00:33 | 61.23086 | -150.45538 | 3756 ft | 225 kts | 180° |
| 2026-04-26 00:34 | 61.21620 | -150.44857 | 3683 ft | 214 kts | 148° |
| 2026-04-26 00:34 | 61.20647 | -150.42663 | 3624 ft | 206 kts | 118° |
| 2026-04-26 00:34 | 61.20065 | -150.40013 | 3567 ft | 198 kts | 115° |
| 2026-04-26 00:34 | 61.19538 | -150.37428 | 3518 ft | 191 kts | 114° |
| 2026-04-26 00:35 | 61.19047 | -150.34967 | 3406 ft | 177 kts | 113° |
| 2026-04-26 00:35 | 61.18623 | -150.32696 | 3220 ft | 161 kts | 112° |
| 2026-04-26 00:35 | 61.18239 | -150.30621 | 3072 ft | 148 kts | 113° |
| 2026-04-26 00:35 | 61.17867 | -150.28688 | 2917 ft | 142 kts | 113° |
| 2026-04-26 00:36 | 61.17506 | -150.26840 | 2765 ft | 134 kts | 112° |
| 2026-04-26 00:36 | 61.17215 | -150.25108 | 2550 ft | 126 kts | 110° |
| 2026-04-26 00:36 | 61.16975 | -150.23338 | 2250 ft | 127 kts | 104° |
| 2026-04-26 00:36 | 61.16815 | -150.21547 | 1975 ft | 126 kts | 99° |
| 2026-04-26 00:37 | 61.16719 | -150.19731 | 1787 ft | 128 kts | 95° |
| 2026-04-26 00:37 | 61.16691 | -150.17866 | 1502 ft | 131 kts | 90° |
| 2026-04-26 00:37 | 61.16717 | -150.15972 | 1291 ft | 131 kts | 89° |
| 2026-04-26 00:37 | 61.16740 | -150.14108 | 1103 ft | 128 kts | 89° |
| 2026-04-26 00:38 | 61.16758 | -150.12263 | 888 ft | 129 kts | 89° |
| 2026-04-26 00:38 | 61.16769 | -150.10378 | 706 ft | 133 kts | 89° |
| 2026-04-26 00:38 | 61.16770 | -150.08462 | 555 ft | 133 kts | 89° |
| 2026-04-26 00:38 | 61.16776 | -150.06557 | 403 ft | 132 kts | 88° |
| 2026-04-26 00:39 | 61.16785 | -150.04664 | 228 ft | 132 kts | 89° |
| 2026-04-26 00:39 | 61.16786 | -150.02815 | 139 ft | 120 kts | 90° |
| 2026-04-26 00:39 | 61.16786 | -150.01334 | 135 ft | 85 kts | 89° |
| 2026-04-26 00:39 | 61.16786 | -150.00450 | 131 ft | 43 kts | 90° |
| 2026-04-26 00:40 | 61.16792 | -149.99884 | 124 ft | 35 kts | 81° |
| 2026-04-26 00:40 | 61.16874 | -149.99470 | 123 ft | 24 kts | 52° |
| 2026-04-26 00:40 | 61.16995 | -149.99278 | 122 ft | 22 kts | 36° |
| 2026-04-26 00:40 | 61.17110 | -149.99095 | 113 ft | 19 kts | 41° |
| 2026-04-26 00:41 | 61.17199 | -149.98887 | 111 ft | 17 kts | 51° |
| 2026-04-26 00:41 | 61.17271 | -149.98765 | 109 ft | 13 kts | 27° |
| 2026-04-26 00:41 | 61.17354 | -149.98659 | 108 ft | 15 kts | 33° |
| 2026-04-26 00:41 | 61.17419 | -149.98542 | 108 ft | 5 kts | 81° |
| 2026-04-26 00:42 | 61.17404 | -149.98479 | 109 ft | 5 kts | 123° |
| 2026-04-26 00:42 | 61.17391 | -149.98413 | 110 ft | 5 kts | 98° |
| 2026-04-26 00:42 | 61.17388 | -149.98356 | 110 ft | 0 kts | 98° |
| 2026-04-26 00:44 | 61.17388 | -149.98364 | 110 ft | 0 kts | 98° |